sensor_id;sensor_type;location;lat;lon;timestamp;pressure;altitude;pressure_sealevel;temperature
29701;BMP280;57917;51.380;-0.176;2023-04-24T00:01:02;100260.66;;;9.54
29701;BMP280;57917;51.380;-0.176;2023-04-24T00:06:49;100270.66;;;9.62
29701;BMP280;57917;51.380;-0.176;2023-04-24T00:12:41;100274.38;;;9.56
29701;BMP280;57917;51.380;-0.176;2023-04-24T00:18:28;100286.31;;;9.87
29701;BMP280;57917;51.380;-0.176;2023-04-24T00:24:15;100279.97;;;9.83
29701;BMP280;57917;51.380;-0.176;2023-04-24T00:30:03;100293.16;;;9.88
29701;BMP280;57917;51.380;-0.176;2023-04-24T00:35:51;100294.56;;;9.81
29701;BMP280;57917;51.380;-0.176;2023-04-24T00:41:38;100306.91;;;9.85
29701;BMP280;57917;51.380;-0.176;2023-04-24T00:47:25;100298.97;;;9.85
29701;BMP280;57917;51.380;-0.176;2023-04-24T00:53:13;100304.28;;;9.85
29701;BMP280;57917;51.380;-0.176;2023-04-24T00:59:00;100318.06;;;9.82
29701;BMP280;57917;51.380;-0.176;2023-04-24T01:04:48;100308.00;;;9.84
29701;BMP280;57917;51.380;-0.176;2023-04-24T01:10:38;100323.78;;;9.94
29701;BMP280;57917;51.380;-0.176;2023-04-24T01:16:27;100317.63;;;10.04
29701;BMP280;57917;51.380;-0.176;2023-04-24T01:22:17;100325.88;;;9.98
29701;BMP280;57917;51.380;-0.176;2023-04-24T01:28:13;100321.25;;;9.79
29701;BMP280;57917;51.380;-0.176;2023-04-24T01:34:00;100322.19;;;9.93
29701;BMP280;57917;51.380;-0.176;2023-04-24T01:39:48;100329.06;;;9.94
29701;BMP280;57917;51.380;-0.176;2023-04-24T01:45:34;100322.84;;;9.80
29701;BMP280;57917;51.380;-0.176;2023-04-24T01:51:25;100347.22;;;9.72
29701;BMP280;57917;51.380;-0.176;2023-04-24T01:57:23;100350.13;;;9.71
29701;BMP280;57917;51.380;-0.176;2023-04-24T02:03:17;100334.59;;;9.64
29701;BMP280;57917;51.380;-0.176;2023-04-24T02:09:04;100346.81;;;9.55
29701;BMP280;57917;51.380;-0.176;2023-04-24T02:14:50;100348.91;;;9.53
29701;BMP280;57917;51.380;-0.176;2023-04-24T02:20:39;100349.22;;;9.47
29701;BMP280;57917;51.380;-0.176;2023-04-24T02:26:26;100357.34;;;9.60
29701;BMP280;57917;51.380;-0.176;2023-04-24T02:32:13;100374.25;;;9.59
29701;BMP280;57917;51.380;-0.176;2023-04-24T02:38:03;100378.41;;;9.70
29701;BMP280;57917;51.380;-0.176;2023-04-24T02:43:49;100386.41;;;9.60
29701;BMP280;57917;51.380;-0.176;2023-04-24T02:49:37;100385.63;;;9.55
29701;BMP280;57917;51.380;-0.176;2023-04-24T02:55:24;100398.59;;;9.51
29701;BMP280;57917;51.380;-0.176;2023-04-24T03:01:12;100403.34;;;9.54
29701;BMP280;57917;51.380;-0.176;2023-04-24T03:06:59;100405.72;;;9.51
29701;BMP280;57917;51.380;-0.176;2023-04-24T03:12:47;100406.81;;;9.50
29701;BMP280;57917;51.380;-0.176;2023-04-24T03:18:34;100416.00;;;9.62
29701;BMP280;57917;51.380;-0.176;2023-04-24T03:24:26;100409.78;;;9.33
29701;BMP280;57917;51.380;-0.176;2023-04-24T03:30:15;100422.47;;;9.31
29701;BMP280;57917;51.380;-0.176;2023-04-24T03:36:08;100415.59;;;9.35
29701;BMP280;57917;51.380;-0.176;2023-04-24T03:41:58;100421.44;;;9.22
29701;BMP280;57917;51.380;-0.176;2023-04-24T03:47:58;100439.09;;;9.32
29701;BMP280;57917;51.380;-0.176;2023-04-24T03:53:47;100440.50;;;9.04
29701;BMP280;57917;51.380;-0.176;2023-04-24T03:59:39;100457.34;;;9.28
29701;BMP280;57917;51.380;-0.176;2023-04-24T04:05:36;100447.94;;;9.02
29701;BMP280;57917;51.380;-0.176;2023-04-24T04:11:25;100462.66;;;9.18
29701;BMP280;57917;51.380;-0.176;2023-04-24T04:17:12;100467.94;;;9.18
29701;BMP280;57917;51.380;-0.176;2023-04-24T04:22:59;100469.75;;;9.33
29701;BMP280;57917;51.380;-0.176;2023-04-24T04:28:59;100477.38;;;9.39
29701;BMP280;57917;51.380;-0.176;2023-04-24T04:34:48;100487.44;;;9.32
29701;BMP280;57917;51.380;-0.176;2023-04-24T04:40:39;100498.78;;;9.38
29701;BMP280;57917;51.380;-0.176;2023-04-24T04:46:31;100504.63;;;9.25
29701;BMP280;57917;51.380;-0.176;2023-04-24T04:52:39;100510.13;;;9.43
29701;BMP280;57917;51.380;-0.176;2023-04-24T04:58:39;100526.22;;;9.52
29701;BMP280;57917;51.380;-0.176;2023-04-24T05:04:30;100526.97;;;9.57
29701;BMP280;57917;51.380;-0.176;2023-04-24T05:10:18;100532.75;;;9.69
29701;BMP280;57917;51.380;-0.176;2023-04-24T05:16:10;100536.00;;;9.46
29701;BMP280;57917;51.380;-0.176;2023-04-24T05:22:00;100543.16;;;9.46
29701;BMP280;57917;51.380;-0.176;2023-04-24T05:27:51;100545.50;;;9.52
29701;BMP280;57917;51.380;-0.176;2023-04-24T05:33:41;100543.63;;;9.63
29701;BMP280;57917;51.380;-0.176;2023-04-24T05:39:54;100540.19;;;9.62
29701;BMP280;57917;51.380;-0.176;2023-04-24T05:46:14;100551.34;;;9.44
29701;BMP280;57917;51.380;-0.176;2023-04-24T05:52:26;100558.69;;;9.62
29701;BMP280;57917;51.380;-0.176;2023-04-24T05:59:20;100563.44;;;9.70
29701;BMP280;57917;51.380;-0.176;2023-04-24T06:05:52;100575.78;;;9.90
29701;BMP280;57917;51.380;-0.176;2023-04-24T06:12:00;100585.56;;;9.84
29701;BMP280;57917;51.380;-0.176;2023-04-24T06:17:57;100601.91;;;10.02
29701;BMP280;57917;51.380;-0.176;2023-04-24T06:23:45;100602.38;;;10.14
29701;BMP280;57917;51.380;-0.176;2023-04-24T06:29:45;100607.06;;;10.27
29701;BMP280;57917;51.380;-0.176;2023-04-24T06:35:40;100620.06;;;10.18
29701;BMP280;57917;51.380;-0.176;2023-04-24T06:41:29;100609.75;;;10.22
29701;BMP280;57917;51.380;-0.176;2023-04-24T06:47:16;100601.31;;;10.97
29701;BMP280;57917;51.380;-0.176;2023-04-24T06:53:06;100587.97;;;11.83
29701;BMP280;57917;51.380;-0.176;2023-04-24T06:58:58;100582.88;;;12.60
29701;BMP280;57917;51.380;-0.176;2023-04-24T07:04:46;100568.72;;;12.33
29701;BMP280;57917;51.380;-0.176;2023-04-24T07:10:34;100570.63;;;12.09
29701;BMP280;57917;51.380;-0.176;2023-04-24T07:16:29;100568.78;;;11.91
29701;BMP280;57917;51.380;-0.176;2023-04-24T07:22:18;100566.19;;;12.73
29701;BMP280;57917;51.380;-0.176;2023-04-24T07:28:05;100549.56;;;13.14
29701;BMP280;57917;51.380;-0.176;2023-04-24T07:33:59;100557.28;;;13.10
29701;BMP280;57917;51.380;-0.176;2023-04-24T07:39:46;100565.88;;;13.07
29701;BMP280;57917;51.380;-0.176;2023-04-24T07:53:00;100590.59;;;14.47
29701;BMP280;57917;51.380;-0.176;2023-04-24T07:59:52;100575.97;;;14.97
29701;BMP280;57917;51.380;-0.176;2023-04-24T08:06:05;100583.78;;;13.83
29701;BMP280;57917;51.380;-0.176;2023-04-24T08:12:09;100589.81;;;14.10
29701;BMP280;57917;51.380;-0.176;2023-04-24T08:17:57;100579.94;;;14.47
29701;BMP280;57917;51.380;-0.176;2023-04-24T08:23:48;100579.88;;;13.40
29701;BMP280;57917;51.380;-0.176;2023-04-24T08:30:13;100593.97;;;14.03
29701;BMP280;57917;51.380;-0.176;2023-04-24T08:36:02;100576.56;;;15.33
29701;BMP280;57917;51.380;-0.176;2023-04-24T08:41:52;100587.31;;;14.14
29701;BMP280;57917;51.380;-0.176;2023-04-24T08:47:54;100584.78;;;14.75
29701;BMP280;57917;51.380;-0.176;2023-04-24T08:53:50;100596.41;;;15.10
29701;BMP280;57917;51.380;-0.176;2023-04-24T08:59:56;100594.50;;;15.49
29701;BMP280;57917;51.380;-0.176;2023-04-24T09:05:47;100599.25;;;16.55
29701;BMP280;57917;51.380;-0.176;2023-04-24T09:12:00;100597.41;;;16.12
29701;BMP280;57917;51.380;-0.176;2023-04-24T09:17:54;100604.47;;;16.17
29701;BMP280;57917;51.380;-0.176;2023-04-24T09:23:41;100590.81;;;16.18
29701;BMP280;57917;51.380;-0.176;2023-04-24T09:29:29;100605.16;;;14.71
29701;BMP280;57917;51.380;-0.176;2023-04-24T09:35:17;100625.31;;;15.25
29701;BMP280;57917;51.380;-0.176;2023-04-24T09:41:13;100617.78;;;15.74
29701;BMP280;57917;51.380;-0.176;2023-04-24T09:47:18;100634.22;;;14.37
29701;BMP280;57917;51.380;-0.176;2023-04-24T09:53:29;100649.94;;;14.25
29701;BMP280;57917;51.380;-0.176;2023-04-24T09:59:33;100648.41;;;13.97
29701;BMP280;57917;51.380;-0.176;2023-04-24T10:05:24;100652.41;;;14.43
29701;BMP280;57917;51.380;-0.176;2023-04-24T10:11:19;100650.03;;;14.20
29701;BMP280;57917;51.380;-0.176;2023-04-24T10:17:14;100662.94;;;15.15
29701;BMP280;57917;51.380;-0.176;2023-04-24T10:23:04;100651.38;;;14.97
29701;BMP280;57917;51.380;-0.176;2023-04-24T10:28:52;100658.19;;;15.34
29701;BMP280;57917;51.380;-0.176;2023-04-24T10:34:46;100660.47;;;14.96
29701;BMP280;57917;51.380;-0.176;2023-04-24T10:41:21;100660.13;;;15.50
29701;BMP280;57917;51.380;-0.176;2023-04-24T10:48:33;100656.28;;;15.34
29701;BMP280;57917;51.380;-0.176;2023-04-24T11:00:21;100652.50;;;14.52
29701;BMP280;57917;51.380;-0.176;2023-04-24T11:06:09;100660.69;;;15.39
29701;BMP280;57917;51.380;-0.176;2023-04-24T11:12:07;100652.53;;;16.60
29701;BMP280;57917;51.380;-0.176;2023-04-24T11:26:21;100671.66;;;15.07
29701;BMP280;57917;51.380;-0.176;2023-04-24T11:32:43;100671.91;;;14.88
29701;BMP280;57917;51.380;-0.176;2023-04-24T11:38:49;100676.50;;;14.74
29701;BMP280;57917;51.380;-0.176;2023-04-24T11:44:37;100677.34;;;15.14
29701;BMP280;57917;51.380;-0.176;2023-04-24T11:50:27;100665.97;;;15.22
29701;BMP280;57917;51.380;-0.176;2023-04-24T11:56:22;100672.44;;;14.77
29701;BMP280;57917;51.380;-0.176;2023-04-24T12:09:58;100662.03;;;13.82
29701;BMP280;57917;51.380;-0.176;2023-04-24T12:15:50;100666.63;;;14.03
29701;BMP280;57917;51.380;-0.176;2023-04-24T12:22:04;100661.94;;;14.58
29701;BMP280;57917;51.380;-0.176;2023-04-24T12:35:00;100652.34;;;14.13
29701;BMP280;57917;51.380;-0.176;2023-04-24T12:41:37;100652.19;;;14.98
29701;BMP280;57917;51.380;-0.176;2023-04-24T12:47:27;100649.59;;;14.84
29701;BMP280;57917;51.380;-0.176;2023-04-24T13:00:01;100636.94;;;15.59
29701;BMP280;57917;51.380;-0.176;2023-04-24T13:06:03;100628.66;;;15.30
29701;BMP280;57917;51.380;-0.176;2023-04-24T13:11:54;100624.44;;;14.99
29701;BMP280;57917;51.380;-0.176;2023-04-24T13:17:42;100634.09;;;14.86
29701;BMP280;57917;51.380;-0.176;2023-04-24T13:23:29;100613.84;;;15.55
29701;BMP280;57917;51.380;-0.176;2023-04-24T13:29:19;100617.28;;;15.64
29701;BMP280;57917;51.380;-0.176;2023-04-24T13:35:08;100613.56;;;14.95
29701;BMP280;57917;51.380;-0.176;2023-04-24T13:40:55;100614.44;;;15.04
29701;BMP280;57917;51.380;-0.176;2023-04-24T13:46:43;100609.72;;;15.01
29701;BMP280;57917;51.380;-0.176;2023-04-24T13:52:34;100606.72;;;15.42
29701;BMP280;57917;51.380;-0.176;2023-04-24T13:58:21;100593.13;;;15.13
29701;BMP280;57917;51.380;-0.176;2023-04-24T14:04:11;100590.84;;;14.89
29701;BMP280;57917;51.380;-0.176;2023-04-24T14:10:00;100586.97;;;14.73
29701;BMP280;57917;51.380;-0.176;2023-04-24T14:15:47;100589.41;;;14.39
29701;BMP280;57917;51.380;-0.176;2023-04-24T14:21:36;100587.88;;;14.91
29701;BMP280;57917;51.380;-0.176;2023-04-24T14:27:27;100570.25;;;14.81
29701;BMP280;57917;51.380;-0.176;2023-04-24T14:33:35;100567.78;;;14.63
29701;BMP280;57917;51.380;-0.176;2023-04-24T14:39:53;100571.88;;;14.16
29701;BMP280;57917;51.380;-0.176;2023-04-24T14:46:01;100570.53;;;13.91
29701;BMP280;57917;51.380;-0.176;2023-04-24T14:51:49;100595.78;;;13.94
29701;BMP280;57917;51.380;-0.176;2023-04-24T14:57:39;100644.66;;;13.44
29701;BMP280;57917;51.380;-0.176;2023-04-24T15:03:26;100677.53;;;11.91
29701;BMP280;57917;51.380;-0.176;2023-04-24T15:10:08;100716.47;;;11.67
29701;BMP280;57917;51.380;-0.176;2023-04-24T15:16:09;100728.16;;;11.66
29701;BMP280;57917;51.380;-0.176;2023-04-24T15:22:16;100741.88;;;11.05
29701;BMP280;57917;51.380;-0.176;2023-04-24T15:28:05;100740.59;;;10.98
29701;BMP280;57917;51.380;-0.176;2023-04-24T15:33:54;100750.44;;;10.92
29701;BMP280;57917;51.380;-0.176;2023-04-24T15:39:44;100760.53;;;10.85
29701;BMP280;57917;51.380;-0.176;2023-04-24T15:45:32;100768.09;;;11.12
29701;BMP280;57917;51.380;-0.176;2023-04-24T15:51:19;100760.69;;;11.48
29701;BMP280;57917;51.380;-0.176;2023-04-24T15:57:06;100767.34;;;11.40
29701;BMP280;57917;51.380;-0.176;2023-04-24T16:02:53;100771.41;;;11.27
29701;BMP280;57917;51.380;-0.176;2023-04-24T16:08:46;100776.22;;;10.77
29701;BMP280;57917;51.380;-0.176;2023-04-24T16:14:53;100783.56;;;9.86
29701;BMP280;57917;51.380;-0.176;2023-04-24T16:20:41;100783.31;;;9.52
29701;BMP280;57917;51.380;-0.176;2023-04-24T16:26:40;100790.97;;;9.29
29701;BMP280;57917;51.380;-0.176;2023-04-24T16:32:59;100789.13;;;9.79
29701;BMP280;57917;51.380;-0.176;2023-04-24T16:38:48;100773.28;;;9.84
29701;BMP280;57917;51.380;-0.176;2023-04-24T16:44:59;100779.63;;;9.93
29701;BMP280;57917;51.380;-0.176;2023-04-24T16:51:17;100782.53;;;9.87
29701;BMP280;57917;51.380;-0.176;2023-04-24T16:57:05;100773.28;;;9.69
29701;BMP280;57917;51.380;-0.176;2023-04-24T17:02:53;100785.41;;;9.20
29701;BMP280;57917;51.380;-0.176;2023-04-24T17:08:43;100798.88;;;9.29
29701;BMP280;57917;51.380;-0.176;2023-04-24T17:14:33;100808.06;;;9.11
29701;BMP280;57917;51.380;-0.176;2023-04-24T17:20:20;100795.44;;;9.28
29701;BMP280;57917;51.380;-0.176;2023-04-24T17:26:12;100795.16;;;9.20
29701;BMP280;57917;51.380;-0.176;2023-04-24T17:32:02;100806.91;;;8.82
29701;BMP280;57917;51.380;-0.176;2023-04-24T17:38:04;100826.63;;;8.69
29701;BMP280;57917;51.380;-0.176;2023-04-24T17:43:52;100830.56;;;8.67
29701;BMP280;57917;51.380;-0.176;2023-04-24T17:49:40;100833.88;;;8.89
29701;BMP280;57917;51.380;-0.176;2023-04-24T17:55:33;100825.50;;;9.17
29701;BMP280;57917;51.380;-0.176;2023-04-24T18:01:24;100828.75;;;9.49
29701;BMP280;57917;51.380;-0.176;2023-04-24T18:07:12;100830.59;;;9.29
29701;BMP280;57917;51.380;-0.176;2023-04-24T18:13:00;100835.50;;;9.05
29701;BMP280;57917;51.380;-0.176;2023-04-24T18:18:47;100826.44;;;8.86
29701;BMP280;57917;51.380;-0.176;2023-04-24T18:24:34;100824.78;;;8.70
29701;BMP280;57917;51.380;-0.176;2023-04-24T18:30:22;100837.34;;;8.53
29701;BMP280;57917;51.380;-0.176;2023-04-24T18:36:10;100842.06;;;8.46
29701;BMP280;57917;51.380;-0.176;2023-04-24T18:41:57;100854.78;;;8.59
29701;BMP280;57917;51.380;-0.176;2023-04-24T18:47:57;100870.56;;;8.49
29701;BMP280;57917;51.380;-0.176;2023-04-24T18:53:48;100854.34;;;7.99
29701;BMP280;57917;51.380;-0.176;2023-04-24T18:59:47;100866.28;;;7.80
29701;BMP280;57917;51.380;-0.176;2023-04-24T19:05:34;100887.56;;;7.73
29701;BMP280;57917;51.380;-0.176;2023-04-24T19:11:21;100882.25;;;7.46
29701;BMP280;57917;51.380;-0.176;2023-04-24T19:17:12;100899.84;;;7.41
29701;BMP280;57917;51.380;-0.176;2023-04-24T19:22:59;100910.72;;;7.49
29701;BMP280;57917;51.380;-0.176;2023-04-24T19:28:47;100915.19;;;7.49
29701;BMP280;57917;51.380;-0.176;2023-04-24T19:34:34;100928.47;;;7.16
29701;BMP280;57917;51.380;-0.176;2023-04-24T19:40:28;100941.63;;;7.16
29701;BMP280;57917;51.380;-0.176;2023-04-24T19:46:20;100951.59;;;7.14
29701;BMP280;57917;51.380;-0.176;2023-04-24T19:52:35;100966.75;;;7.23
29701;BMP280;57917;51.380;-0.176;2023-04-24T19:58:58;100968.50;;;7.18
29701;BMP280;57917;51.380;-0.176;2023-04-24T20:04:57;100989.72;;;7.28
29701;BMP280;57917;51.380;-0.176;2023-04-24T20:11:13;100982.25;;;7.20
29701;BMP280;57917;51.380;-0.176;2023-04-24T20:17:15;100989.44;;;7.24
29701;BMP280;57917;51.380;-0.176;2023-04-24T20:23:13;100996.91;;;7.32
29701;BMP280;57917;51.380;-0.176;2023-04-24T20:29:38;101007.00;;;7.40
29701;BMP280;57917;51.380;-0.176;2023-04-24T20:50:27;101028.69;;;7.64
29701;BMP280;57917;51.380;-0.176;2023-04-24T20:56:42;101042.03;;;7.57
29701;BMP280;57917;51.380;-0.176;2023-04-24T21:03:25;101039.53;;;7.46
29701;BMP280;57917;51.380;-0.176;2023-04-24T21:09:40;101037.63;;;7.08
29701;BMP280;57917;51.380;-0.176;2023-04-24T21:15:30;101034.56;;;7.16
29701;BMP280;57917;51.380;-0.176;2023-04-24T21:21:19;101038.03;;;7.17
29701;BMP280;57917;51.380;-0.176;2023-04-24T21:27:14;101031.25;;;7.04
29701;BMP280;57917;51.380;-0.176;2023-04-24T21:33:00;101032.81;;;7.05
29701;BMP280;57917;51.380;-0.176;2023-04-24T21:38:48;101046.38;;;7.14
29701;BMP280;57917;51.380;-0.176;2023-04-24T21:44:35;101046.22;;;7.04
29701;BMP280;57917;51.380;-0.176;2023-04-24T21:50:22;101067.59;;;7.57
29701;BMP280;57917;51.380;-0.176;2023-04-24T21:56:09;101069.41;;;7.40
29701;BMP280;57917;51.380;-0.176;2023-04-24T22:01:58;101063.81;;;7.70
29701;BMP280;57917;51.380;-0.176;2023-04-24T22:07:45;101061.69;;;7.50
29701;BMP280;57917;51.380;-0.176;2023-04-24T22:13:36;101072.41;;;7.43
29701;BMP280;57917;51.380;-0.176;2023-04-24T22:19:26;101070.78;;;7.42
29701;BMP280;57917;51.380;-0.176;2023-04-24T22:25:16;101072.03;;;7.56
29701;BMP280;57917;51.380;-0.176;2023-04-24T22:31:06;101063.94;;;7.08
29701;BMP280;57917;51.380;-0.176;2023-04-24T22:37:08;101062.34;;;7.07
29701;BMP280;57917;51.380;-0.176;2023-04-24T22:42:54;101080.75;;;7.07
29701;BMP280;57917;51.380;-0.176;2023-04-24T22:48:41;101079.56;;;7.15
29701;BMP280;57917;51.380;-0.176;2023-04-24T22:54:43;101085.03;;;7.25
29701;BMP280;57917;51.380;-0.176;2023-04-24T23:00:37;101090.59;;;7.45
29701;BMP280;57917;51.380;-0.176;2023-04-24T23:06:27;101111.34;;;7.08
29701;BMP280;57917;51.380;-0.176;2023-04-24T23:12:14;101106.22;;;7.02
29701;BMP280;57917;51.380;-0.176;2023-04-24T23:18:04;101088.19;;;7.10
29701;BMP280;57917;51.380;-0.176;2023-04-24T23:23:51;101112.44;;;6.96
29701;BMP280;57917;51.380;-0.176;2023-04-24T23:29:40;101122.59;;;6.92
29701;BMP280;57917;51.380;-0.176;2023-04-24T23:35:27;101126.53;;;6.90
29701;BMP280;57917;51.380;-0.176;2023-04-24T23:49:38;101153.06;;;6.60
29701;BMP280;57917;51.380;-0.176;2023-04-24T23:55:27;101162.59;;;6.78
